createdAt,value
2023-04-29T00:00:44.041Z,7.95
2023-04-29T00:03:10.907Z,8.05
2023-04-29T00:05:37.927Z,8.38
2023-04-29T00:08:05.765Z,8.68
2023-04-29T00:10:32.653Z,7.85
2023-04-29T00:12:59.386Z,7.88
2023-04-29T00:15:26.149Z,8.18
2023-04-29T00:17:53.133Z,7.40
2023-04-29T00:20:19.876Z,8.45
2023-04-29T00:22:46.899Z,8.05
2023-04-29T00:25:13.732Z,8.63
2023-04-29T00:27:40.939Z,9.10
2023-04-29T00:30:08.593Z,8.75
2023-04-29T00:32:35.317Z,8.40
2023-04-29T00:35:02.387Z,9.13
2023-04-29T00:37:29.045Z,9.20
2023-04-29T00:39:55.680Z,9.13
2023-04-29T00:42:22.504Z,8.40
2023-04-29T00:44:49.111Z,8.85
2023-04-29T00:47:15.777Z,8.50
2023-04-29T00:49:42.485Z,8.57
2023-04-29T00:52:11.836Z,8.50
2023-04-29T00:54:39.276Z,8.70
2023-04-29T00:57:07.310Z,8.45
2023-04-29T00:59:34.587Z,8.40
2023-04-29T01:02:04.177Z,7.45
2023-04-29T01:04:31.448Z,8.93
2023-04-29T01:07:17.160Z,8.90
2023-04-29T01:10:04.107Z,7.80
2023-04-29T01:12:37.083Z,8.82
2023-04-29T01:15:21.501Z,8.63
2023-04-29T01:18:14.510Z,9.05
2023-04-29T01:20:42.056Z,8.38
2023-04-29T01:23:08.714Z,8.48
2023-04-29T01:25:35.666Z,8.45
2023-04-29T01:28:13.174Z,8.13
2023-04-29T01:30:50.538Z,8.55
2023-04-29T01:33:33.081Z,8.05
2023-04-29T01:36:32.209Z,8.13
2023-04-29T01:39:31.556Z,8.43
2023-04-29T01:42:14.822Z,8.97
2023-04-29T01:44:42.549Z,8.32
2023-04-29T01:47:13.254Z,8.50
2023-04-29T01:49:39.921Z,8.02
2023-04-29T01:52:07.477Z,10.00
2023-04-29T01:54:36.984Z,7.80
2023-04-29T01:57:03.820Z,8.10
2023-04-29T01:59:31.752Z,9.35
2023-04-29T02:01:58.950Z,7.90
2023-04-29T02:04:26.089Z,9.77
2023-04-29T02:06:52.868Z,9.63
2023-04-29T02:09:19.767Z,8.88
2023-04-29T02:11:46.354Z,9.15
2023-04-29T02:14:13.013Z,9.15
2023-04-29T02:16:40.205Z,9.57
2023-04-29T02:19:06.860Z,8.77
2023-04-29T02:21:35.144Z,9.88
2023-04-29T02:24:02.528Z,10.30
2023-04-29T02:26:29.184Z,9.43
2023-04-29T02:28:57.337Z,10.73
2023-04-29T02:31:23.960Z,10.07
2023-04-29T02:33:50.866Z,11.07
2023-04-29T02:36:18.361Z,10.45
2023-04-29T02:38:45.102Z,10.18
2023-04-29T02:41:17.365Z,10.20
2023-04-29T02:43:44.705Z,10.93
2023-04-29T02:46:11.657Z,11.55
2023-04-29T02:48:38.388Z,11.15
2023-04-29T02:51:05.147Z,11.98
2023-04-29T02:53:31.791Z,10.88
2023-04-29T02:55:58.457Z,11.15
2023-04-29T02:58:25.245Z,11.13
2023-04-29T03:00:51.922Z,11.80
2023-04-29T03:03:18.763Z,11.13
2023-04-29T03:05:45.793Z,12.57
2023-04-29T03:08:12.430Z,12.05
2023-04-29T03:10:41.372Z,11.55
2023-04-29T03:13:08.627Z,12.13
2023-04-29T03:15:35.430Z,12.40
2023-04-29T03:18:04.224Z,11.93
2023-04-29T03:20:30.893Z,12.90
2023-04-29T03:22:57.955Z,13.32
2023-04-29T03:25:24.591Z,12.95
2023-04-29T03:27:51.575Z,13.48
2023-04-29T03:30:18.235Z,13.00
2023-04-29T03:32:44.929Z,13.48
2023-04-29T03:35:14.117Z,14.43
2023-04-29T03:37:44.526Z,14.23
2023-04-29T03:40:12.312Z,14.73
2023-04-29T03:42:38.934Z,13.98
2023-04-29T03:45:06.579Z,14.05
2023-04-29T03:47:33.506Z,15.57
2023-04-29T03:50:00.193Z,16.08
2023-04-29T03:52:27.201Z,16.35
2023-04-29T03:54:53.834Z,15.05
2023-04-29T03:57:20.641Z,15.65
2023-04-29T03:59:50.555Z,16.70
2023-04-29T04:02:17.568Z,18.10
2023-04-29T04:04:44.538Z,15.77
2023-04-29T04:07:11.846Z,17.02
2023-04-29T04:09:38.533Z,17.42
2023-04-29T04:12:06.500Z,18.27
2023-04-29T04:14:33.231Z,17.00
2023-04-29T04:16:59.974Z,16.85
2023-04-29T04:19:27.256Z,18.08
2023-04-29T04:21:53.988Z,18.27
2023-04-29T04:24:20.965Z,18.27
2023-04-29T04:26:47.585Z,17.38
2023-04-29T04:29:14.242Z,18.90
2023-04-29T04:31:41.092Z,18.58
2023-04-29T04:34:07.783Z,18.15
2023-04-29T04:36:34.419Z,19.13
2023-04-29T04:39:01.111Z,19.50
2023-04-29T04:41:27.849Z,19.45
2023-04-29T04:43:54.569Z,18.60
2023-04-29T04:46:21.296Z,20.75
2023-04-29T04:48:48.038Z,19.73
2023-04-29T04:51:14.675Z,19.75
2023-04-29T04:53:41.328Z,19.58
2023-04-29T04:56:08.546Z,19.42
2023-04-29T04:58:35.239Z,19.90
2023-04-29T05:01:02.697Z,20.52
2023-04-29T05:03:29.497Z,21.23
2023-04-29T05:06:00.364Z,22.05
2023-04-29T05:08:27.458Z,20.70
2023-04-29T05:10:54.592Z,22.33
2023-04-29T05:13:21.517Z,21.20
2023-04-29T05:15:48.281Z,22.20
2023-04-29T05:18:14.899Z,20.92
2023-04-29T05:20:41.557Z,22.25
2023-04-29T05:23:08.929Z,21.95
2023-04-29T05:25:35.768Z,23.58
2023-04-29T05:28:03.440Z,22.63
2023-04-29T05:30:30.116Z,22.67
2023-04-29T05:32:56.838Z,22.55
2023-04-29T05:35:23.636Z,23.70
2023-04-29T05:37:50.302Z,24.55
2023-04-29T05:40:17.104Z,23.92
2023-04-29T05:42:43.770Z,25.38
2023-04-29T05:45:10.807Z,23.00
2023-04-29T05:47:37.741Z,23.65
2023-04-29T05:50:04.789Z,24.52
2023-04-29T05:52:31.421Z,26.30
2023-04-29T05:54:58.193Z,23.98
2023-04-29T05:57:24.931Z,25.85
2023-04-29T05:59:51.782Z,25.73
2023-04-29T06:02:18.572Z,25.67
2023-04-29T06:04:47.834Z,26.92
2023-04-29T06:07:14.753Z,26.73
2023-04-29T06:09:42.792Z,26.58
2023-04-29T06:12:09.671Z,29.88
2023-04-29T06:14:36.505Z,28.48
2023-04-29T06:17:03.851Z,39.80
2023-04-29T06:19:32.539Z,31.98
2023-04-29T06:21:59.446Z,33.85
2023-04-29T06:24:26.122Z,38.28
2023-04-29T06:26:52.824Z,32.55
2023-04-29T06:29:19.437Z,30.92
2023-04-29T06:31:46.139Z,31.17
2023-04-29T06:34:13.187Z,32.20
2023-04-29T06:36:40.173Z,31.50
2023-04-29T06:39:07.123Z,31.55
2023-04-29T06:41:34.825Z,31.50
2023-04-29T06:44:01.580Z,30.50
2023-04-29T06:46:29.169Z,32.40
2023-04-29T06:48:55.913Z,33.10
2023-04-29T06:51:22.661Z,31.08
2023-04-29T06:53:49.324Z,32.90
2023-04-29T06:56:17.154Z,31.60
2023-04-29T06:58:43.936Z,33.75
2023-04-29T07:01:11.024Z,32.78
2023-04-29T07:03:38.088Z,34.40
2023-04-29T07:06:05.167Z,32.28
2023-04-29T07:08:32.259Z,33.75
2023-04-29T07:10:59.353Z,35.05
2023-04-29T07:13:26.183Z,33.50
2023-04-29T07:15:52.909Z,33.95
2023-04-29T07:18:19.584Z,32.95
2023-04-29T07:20:47.866Z,34.95
2023-04-29T07:23:15.072Z,31.63
2023-04-29T07:25:41.854Z,33.22
2023-04-29T07:28:09.277Z,31.65
2023-04-29T07:30:36.316Z,32.95
2023-04-29T07:33:04.352Z,35.17
2023-04-29T07:35:31.714Z,31.92
2023-04-29T07:37:58.419Z,33.00
2023-04-29T07:40:25.288Z,32.28
2023-04-29T07:42:51.987Z,31.40
2023-04-29T07:45:18.709Z,31.67
2023-04-29T07:47:45.984Z,31.55
2023-04-29T07:50:12.936Z,31.77
2023-04-29T07:52:39.627Z,30.73
2023-04-29T07:55:06.728Z,33.25
2023-04-29T07:57:33.423Z,31.58
2023-04-29T08:00:00.191Z,28.67
2023-04-29T08:02:27.120Z,28.05
2023-04-29T08:04:56.037Z,28.33
2023-04-29T08:07:23.295Z,25.33
2023-04-29T08:09:50.079Z,19.75
2023-04-29T08:12:16.762Z,20.85
2023-04-29T08:14:43.543Z,19.38
2023-04-29T08:17:10.487Z,20.83
2023-04-29T08:19:37.140Z,19.42
2023-04-29T08:22:04.405Z,18.35
2023-04-29T08:24:31.253Z,18.98
2023-04-29T08:26:59.322Z,17.48
2023-04-29T08:29:26.186Z,17.80
2023-04-29T08:31:53.115Z,17.65
2023-04-29T08:34:19.824Z,17.83
2023-04-29T08:36:46.479Z,18.40
2023-04-29T08:39:13.103Z,18.67
2023-04-29T08:41:39.866Z,18.95
2023-04-29T08:44:07.048Z,19.25
2023-04-29T08:46:33.823Z,17.55
2023-04-29T08:49:03.935Z,14.63
2023-04-29T08:51:32.368Z,15.07
2023-04-29T08:53:59.059Z,12.73
2023-04-29T08:56:28.042Z,13.05
2023-04-29T08:58:58.202Z,12.48
2023-04-29T09:01:28.900Z,11.80
2023-04-29T09:04:15.299Z,10.73
2023-04-29T09:06:41.992Z,10.90
2023-04-29T09:09:09.644Z,11.52
2023-04-29T09:11:37.454Z,11.13
2023-04-29T09:14:08.271Z,13.00
2023-04-29T09:16:37.383Z,13.35
2023-04-29T09:19:04.091Z,13.65
2023-04-29T09:21:33.908Z,13.93
2023-04-29T09:24:02.049Z,15.48
2023-04-29T09:26:42.950Z,15.50
2023-04-29T09:29:13.853Z,16.83
2023-04-29T09:31:42.269Z,18.60
2023-04-29T09:34:09.954Z,17.65
2023-04-29T09:36:38.177Z,19.13
2023-04-29T09:39:11.047Z,20.00
2023-04-29T09:41:40.279Z,20.67
2023-04-29T09:44:08.533Z,21.27
2023-04-29T09:46:36.863Z,20.90
2023-04-29T09:49:07.250Z,19.88
2023-04-29T09:51:41.576Z,18.85
2023-04-29T09:54:21.761Z,18.38
2023-04-29T09:59:19.709Z,17.08
2023-04-29T10:01:49.625Z,17.80
2023-04-29T10:04:17.844Z,18.73
2023-04-29T10:06:46.670Z,19.65
2023-04-29T10:09:18.155Z,21.77
2023-04-29T10:11:46.162Z,24.40
2023-04-29T10:14:14.890Z,27.17
2023-04-29T10:17:04.007Z,27.13
2023-04-29T10:19:38.286Z,28.05
2023-04-29T10:22:12.279Z,30.65
2023-04-29T10:24:40.173Z,30.90
2023-04-29T10:27:13.127Z,32.78
2023-04-29T10:29:41.683Z,29.80
2023-04-29T10:32:12.779Z,33.88
2023-04-29T10:34:42.303Z,36.08
2023-04-29T10:37:12.610Z,38.97
2023-04-29T10:42:45.898Z,39.05
2023-04-29T10:45:31.736Z,38.72
2023-04-29T10:48:10.570Z,40.42
2023-04-29T10:50:45.487Z,45.15
2023-04-29T10:53:12.163Z,44.85
2023-04-29T10:55:38.988Z,44.58
2023-04-29T10:58:06.528Z,46.60
2023-04-29T11:00:35.007Z,46.33
2023-04-29T11:03:05.227Z,46.95
2023-04-29T11:05:36.553Z,47.42
2023-04-29T11:08:24.298Z,46.80
2023-04-29T11:11:00.507Z,48.33
2023-04-29T11:13:29.147Z,48.42
2023-04-29T11:16:11.376Z,47.45
2023-04-29T11:19:05.093Z,48.30
2023-04-29T11:21:33.530Z,47.83
2023-04-29T11:24:01.475Z,46.42
2023-04-29T11:26:28.168Z,44.90
2023-04-29T11:28:56.449Z,46.00
2023-04-29T11:31:33.318Z,47.17
2023-04-29T11:34:00.652Z,46.22
2023-04-29T11:36:27.610Z,43.65
2023-04-29T11:38:54.428Z,41.85
2023-04-29T11:41:22.456Z,40.92
2023-04-29T11:43:57.570Z,37.38
2023-04-29T11:46:25.154Z,37.03
2023-04-29T11:48:51.858Z,34.50
2023-04-29T11:51:19.876Z,35.63
2023-04-29T11:53:46.858Z,35.05
2023-04-29T11:56:13.506Z,36.65
2023-04-29T11:58:41.961Z,36.95
2023-04-29T12:01:08.693Z,35.38
2023-04-29T12:03:36.735Z,34.53
2023-04-29T12:06:03.843Z,35.50
2023-04-29T12:08:31.175Z,32.08
2023-04-29T12:10:59.536Z,30.55
2023-04-29T12:13:30.634Z,30.17
2023-04-29T12:15:58.832Z,28.95
2023-04-29T12:18:27.666Z,27.60
2023-04-29T12:20:58.326Z,29.00
2023-04-29T12:23:28.483Z,28.48
2023-04-29T12:26:00.516Z,25.70
2023-04-29T12:28:27.639Z,24.35
2023-04-29T12:30:54.930Z,23.25
2023-04-29T12:33:27.225Z,22.75
2023-04-29T12:35:57.482Z,21.38
2023-04-29T12:40:58.418Z,19.92
2023-04-29T12:43:29.299Z,19.27
2023-04-29T12:46:02.680Z,18.95
2023-04-29T12:48:33.797Z,19.70
2023-04-29T12:51:01.883Z,19.38
2023-04-29T12:53:32.156Z,18.55
2023-04-29T12:55:59.041Z,17.42
2023-04-29T12:58:29.400Z,17.60
2023-04-29T13:00:56.370Z,17.10
2023-04-29T13:03:23.993Z,16.33
2023-04-29T13:05:53.632Z,16.58
2023-04-29T13:08:21.265Z,16.73
2023-04-29T13:10:48.198Z,16.88
2023-04-29T13:13:14.863Z,15.65
2023-04-29T13:15:41.599Z,15.63
2023-04-29T13:18:08.478Z,15.18
2023-04-29T13:20:41.136Z,15.88
2023-04-29T13:23:09.604Z,17.30
2023-04-29T13:25:37.595Z,16.65
2023-04-29T13:28:05.687Z,16.58
2023-04-29T13:30:33.047Z,16.75
2023-04-29T13:33:07.915Z,15.02
2023-04-29T13:35:40.015Z,14.60
2023-04-29T13:38:06.938Z,14.07
2023-04-29T13:40:38.359Z,14.13
2023-04-29T13:43:09.494Z,12.77
2023-04-29T13:45:39.334Z,12.97
2023-04-29T13:48:20.036Z,11.65
2023-04-29T13:58:41.038Z,11.77
2023-04-29T14:01:54.736Z,11.60
2023-04-29T14:04:01.609Z,10.07
2023-04-29T14:06:28.552Z,11.65
2023-04-29T14:08:55.315Z,11.20
2023-04-29T14:11:22.043Z,10.35
2023-04-29T14:13:48.641Z,11.25
2023-04-29T14:16:15.426Z,10.60
2023-04-29T14:18:42.134Z,12.05
2023-04-29T14:21:08.836Z,10.18
2023-04-29T14:23:35.882Z,10.65
2023-04-29T14:26:22.288Z,9.98
2023-04-29T14:28:49.508Z,10.75
2023-04-29T14:31:18.081Z,10.27
2023-04-29T14:33:44.668Z,9.32
2023-04-29T14:36:11.380Z,9.45
2023-04-29T14:38:38.037Z,9.30
2023-04-29T14:41:04.843Z,9.70
2023-04-29T14:43:31.477Z,9.77
2023-04-29T14:45:58.569Z,10.18
2023-04-29T14:48:25.285Z,9.48
2023-04-29T14:50:51.925Z,9.52
2023-04-29T14:53:18.738Z,9.90
2023-04-29T14:55:45.545Z,9.30
2023-04-29T14:58:12.274Z,9.77
2023-04-29T15:00:38.870Z,9.88
2023-04-29T15:03:05.667Z,9.45
2023-04-29T15:05:32.417Z,9.50
2023-04-29T15:08:01.423Z,9.30
2023-04-29T15:10:28.507Z,8.63
2023-04-29T15:12:55.300Z,8.68
2023-04-29T15:15:23.305Z,8.00
2023-04-29T15:17:50.176Z,8.15
2023-04-29T15:20:17.000Z,7.70
2023-04-29T15:22:43.710Z,7.82
2023-04-29T15:25:10.638Z,8.38
2023-04-29T15:27:38.125Z,7.43
2023-04-29T15:30:05.849Z,8.27
2023-04-29T15:32:32.767Z,8.45
2023-04-29T15:35:01.166Z,7.57
2023-04-29T15:37:28.927Z,8.40
2023-04-29T15:39:56.503Z,7.57
2023-04-29T15:42:23.258Z,8.35
2023-04-29T15:44:50.159Z,7.65
2023-04-29T15:47:16.822Z,8.27
2023-04-29T15:49:43.927Z,8.70
2023-04-29T15:52:10.850Z,7.07
2023-04-29T15:54:37.522Z,7.07
2023-04-29T15:57:04.407Z,8.00
2023-04-29T15:59:31.632Z,6.97
2023-04-29T16:01:58.600Z,6.43
2023-04-29T16:04:25.290Z,6.68
2023-04-29T16:06:52.812Z,7.15
2023-04-29T16:09:19.592Z,6.43
2023-04-29T16:11:46.236Z,6.57
2023-04-29T16:14:12.882Z,6.60
2023-04-29T16:16:39.560Z,6.45
2023-04-29T16:19:06.367Z,6.20
2023-04-29T16:21:34.537Z,8.48
2023-04-29T16:24:01.193Z,6.25
2023-04-29T16:26:28.293Z,6.47
2023-04-29T16:28:54.883Z,10.57
2023-04-29T16:31:21.753Z,9.68
2023-04-29T16:33:48.421Z,6.50
2023-04-29T16:36:15.082Z,7.43
2023-04-29T16:38:41.706Z,6.22
2023-04-29T16:41:08.393Z,8.30
2023-04-29T16:43:35.183Z,8.10
2023-04-29T16:46:01.831Z,19.85
2023-04-29T16:48:28.918Z,12.02
2023-04-29T16:50:55.625Z,14.80
2023-04-29T16:53:22.249Z,6.72
2023-04-29T16:55:50.662Z,5.90
2023-04-29T16:58:17.476Z,6.15
2023-04-29T17:00:44.222Z,7.00
2023-04-29T17:03:11.315Z,7.10
2023-04-29T17:05:38.796Z,7.50
2023-04-29T17:08:05.664Z,6.78
2023-04-29T17:10:32.517Z,5.97
2023-04-29T17:12:59.482Z,6.55
2023-04-29T17:15:26.400Z,6.47
2023-04-29T17:17:55.091Z,6.82
2023-04-29T17:20:21.882Z,6.60
2023-04-29T17:22:48.759Z,7.30
2023-04-29T17:25:16.250Z,6.72
2023-04-29T17:27:46.164Z,6.38
2023-04-29T17:30:13.414Z,8.60
2023-04-29T17:32:40.250Z,8.73
2023-04-29T17:35:08.803Z,8.02
2023-04-29T17:37:35.782Z,9.90
2023-04-29T17:40:02.953Z,9.55
2023-04-29T17:42:29.667Z,7.82
2023-04-29T17:44:56.334Z,7.93
2023-04-29T17:47:23.384Z,8.68
2023-04-29T17:49:52.060Z,9.15
2023-04-29T17:52:21.369Z,8.48
2023-04-29T17:54:48.828Z,7.65
2023-04-29T17:57:15.806Z,8.18
2023-04-29T17:59:42.414Z,7.30
2023-04-29T18:02:09.046Z,7.43
2023-04-29T18:04:37.397Z,7.20
2023-04-29T18:07:04.252Z,7.50
2023-04-29T18:09:31.035Z,7.68
2023-04-29T18:11:57.653Z,6.40
2023-04-29T18:14:24.607Z,7.68
2023-04-29T18:16:51.675Z,8.77
2023-04-29T18:19:18.374Z,7.43
2023-04-29T18:21:45.006Z,7.03
2023-04-29T18:24:11.816Z,6.10
2023-04-29T18:26:38.501Z,5.55
2023-04-29T18:29:05.229Z,5.63
2023-04-29T18:31:31.846Z,5.47
2023-04-29T18:33:58.635Z,5.30
2023-04-29T18:36:25.520Z,5.50
2023-04-29T18:38:52.131Z,6.68
2023-04-29T18:41:18.870Z,7.55
2023-04-29T18:43:45.591Z,6.45
2023-04-29T18:46:12.206Z,6.00
2023-04-29T18:48:40.696Z,5.32
2023-04-29T18:51:07.400Z,5.47
2023-04-29T18:53:34.395Z,5.78
2023-04-29T18:56:01.038Z,5.68
2023-04-29T18:58:27.723Z,5.75
2023-04-29T19:00:54.747Z,5.82
2023-04-29T19:03:21.877Z,6.72
2023-04-29T19:05:48.590Z,6.53
2023-04-29T19:08:16.498Z,6.47
2023-04-29T19:10:44.474Z,6.55
2023-04-29T19:13:11.637Z,5.78
2023-04-29T19:15:38.503Z,5.93
2023-04-29T19:18:05.236Z,6.90
2023-04-29T19:20:32.339Z,6.28
2023-04-29T19:22:59.092Z,6.03
2023-04-29T19:25:28.585Z,5.45
2023-04-29T19:27:55.225Z,6.10
2023-04-29T19:30:22.128Z,6.00
2023-04-29T19:32:49.118Z,5.50
2023-04-29T19:35:16.090Z,5.95
2023-04-29T19:37:42.842Z,6.18
2023-04-29T19:40:10.893Z,6.68
2023-04-29T19:42:38.952Z,7.43
2023-04-29T19:45:09.440Z,6.50
2023-04-29T19:47:36.356Z,8.15
2023-04-29T19:50:03.266Z,7.85
2023-04-29T19:52:30.078Z,8.50
2023-04-29T19:54:57.259Z,8.70
2023-04-29T19:57:23.984Z,9.32
2023-04-29T19:59:50.678Z,10.73
2023-04-29T20:02:17.403Z,9.63
2023-04-29T20:04:44.047Z,9.25
2023-04-29T20:07:10.725Z,9.40
2023-04-29T20:09:37.749Z,9.65
2023-04-29T20:12:04.690Z,8.68
2023-04-29T20:14:32.777Z,9.25
2023-04-29T20:17:00.562Z,10.02
2023-04-29T20:19:27.643Z,9.65
2023-04-29T20:21:54.274Z,8.90
2023-04-29T20:24:21.051Z,10.35
2023-04-29T20:26:47.726Z,10.15
2023-04-29T20:29:14.462Z,9.18
2023-04-29T20:31:41.245Z,9.57
2023-04-29T20:34:08.064Z,9.00
2023-04-29T20:36:34.706Z,10.18
2023-04-29T20:39:01.509Z,9.80
2023-04-29T20:41:28.989Z,8.90
2023-04-29T20:43:56.134Z,8.77
2023-04-29T20:46:24.601Z,9.40
2023-04-29T20:48:53.041Z,9.48
2023-04-29T20:51:19.697Z,9.10
2023-04-29T20:53:46.769Z,10.20
2023-04-29T20:56:13.804Z,9.73
2023-04-29T20:58:40.592Z,9.90
2023-04-29T21:01:07.927Z,9.65
2023-04-29T21:03:34.806Z,9.07
2023-04-29T21:06:01.572Z,10.02
2023-04-29T21:08:28.323Z,9.90
2023-04-29T21:10:55.009Z,9.88
2023-04-29T21:13:21.681Z,9.77
2023-04-29T21:15:48.500Z,9.10
2023-04-29T21:18:15.297Z,10.02
2023-04-29T21:20:41.962Z,10.15
2023-04-29T21:23:08.817Z,9.73
2023-04-29T21:25:35.476Z,9.32
2023-04-29T21:28:02.250Z,11.30
2023-04-29T21:30:28.914Z,9.57
2023-04-29T21:32:56.317Z,10.98
2023-04-29T21:35:22.988Z,10.88
2023-04-29T21:37:49.602Z,11.45
2023-04-29T21:40:16.681Z,10.90
2023-04-29T21:42:43.934Z,10.52
2023-04-29T21:45:12.714Z,9.90
2023-04-29T21:47:39.518Z,9.68
2023-04-29T21:50:07.940Z,9.73
2023-04-29T21:52:35.294Z,9.48
2023-04-29T21:55:03.978Z,9.75
2023-04-29T21:57:42.702Z,9.32
2023-04-29T22:00:20.739Z,9.48
2023-04-29T22:02:47.608Z,9.32
2023-04-29T22:05:14.270Z,9.07
2023-04-29T22:07:40.970Z,9.13
2023-04-29T22:10:08.073Z,8.38
2023-04-29T22:12:34.765Z,8.40
2023-04-29T22:15:01.433Z,8.90
2023-04-29T22:17:28.131Z,8.88
2023-04-29T22:19:54.997Z,9.10
2023-04-29T22:22:22.007Z,9.05
2023-04-29T22:24:48.761Z,9.05
2023-04-29T22:27:15.912Z,9.07
2023-04-29T22:29:43.129Z,9.30
2023-04-29T22:32:09.980Z,9.23
2023-04-29T22:34:36.942Z,10.23
2023-04-29T22:37:03.593Z,11.00
2023-04-29T22:39:30.298Z,11.15
2023-04-29T22:41:56.979Z,10.57
2023-04-29T22:44:23.582Z,11.50
2023-04-29T22:46:50.380Z,10.05
2023-04-29T22:49:17.136Z,10.25
2023-04-29T22:51:43.734Z,11.02
2023-04-29T22:54:10.499Z,10.18
2023-04-29T22:56:37.178Z,10.88
2023-04-29T22:59:03.798Z,10.18
2023-04-29T23:01:30.645Z,10.35
2023-04-29T23:03:58.021Z,9.82
2023-04-29T23:06:24.753Z,9.35
2023-04-29T23:08:52.481Z,9.50
2023-04-29T23:11:19.304Z,8.73
2023-04-29T23:13:45.962Z,7.95
2023-04-29T23:16:12.685Z,8.40
2023-04-29T23:18:39.550Z,9.40
2023-04-29T23:21:07.218Z,8.23
2023-04-29T23:23:34.036Z,8.40
2023-04-29T23:26:00.708Z,7.78
2023-04-29T23:28:27.369Z,8.10
2023-04-29T23:30:54.610Z,8.23
2023-04-29T23:33:21.304Z,8.45
2023-04-29T23:35:52.367Z,8.20
2023-04-29T23:38:19.792Z,7.30
2023-04-29T23:40:46.822Z,7.75
2023-04-29T23:43:15.071Z,7.30
2023-04-29T23:45:45.110Z,7.28
2023-04-29T23:50:39.071Z,7.22
2023-04-29T23:53:05.749Z,8.00
2023-04-29T23:55:33.487Z,7.40
2023-04-29T23:58:00.365Z,7.78
